x

Long Island - 30 Nm South Of Islip, Ny (44025) Wave Buoy

2:50am - Sun 19th Nov 2017 All times are EST. -5 hours from GMT.

  • Sig Wave height 13.4ft
  • Swell Direction
  • Peak Period 9s
  • Average Period 7s
  • Wind
    31mph, 40mph gusts
  • Sea Temp 58°f
  • Air Temp 61°f
  • Sea Pressure 993.8mb
  • Long Island - 30 Nm South Of Islip, Ny
  • Long Island - 30 Nm South Of Islip, Ny

More Historic Weather Station data

Upgrade to MSW Pro to gain access to the past 30 days of data for over 8000 Wavebouys and Weather Stations around the globe.

Join

Comparision Forecast

View Surf forecast
   
Sun 11/19 2:50am 13.5ft 9s 7s 31 40 mph 993.8mb 58f 61f
1:50am 12.5ft 9s 7s 31 40 mph 994.7mb 58f 62f
12:50am 11ft 9s 7s 34 40 mph 995.3mb 58f 62f
Sat 11/18 11:50pm 9.5ft 8s 6s 31 40 mph 996.9mb 58f 61f
10:50pm 9ft 8s 6s 29 36 mph 998.5mb 58f 61f
9:50pm 8.5ft 8s 6s 27 34 mph 1000.1mb 58f 60f
8:50pm 8ft 8s 6s 25 31 mph 1001.2mb 58f 60f
7:50pm 9ft 7s 6s 25 29 mph 1002.7mb 58f 59f
6:50pm 8ft 7s 6s 29 38 mph 1003mb 58f 59f
5:50pm 8ft 7s 6s 27 34 mph 1003.6mb 58f 58f
4:50pm 7.5ft 6s 5s 27 31 mph 1004.3mb 58f 58f
3:50pm 7ft 6s 5s 27 34 mph 1004.9mb 58f 57f
2:50pm 6ft 6s 5s 27 34 mph 1005.9mb 58f 56f
1:50pm 5ft 5s 5s 25 29 mph 1007.9mb 58f 56f
12:50pm 4.5ft 5s 4s 25 29 mph 1009.3mb 58f 55f
11:50am 3.5ft 5s 4s 25 29 mph 1010.8mb 58f 54f
10:50am 3.5ft 4s 4s 20 25 mph 1012.5mb 58f 53f
9:50am 2.5ft 4s 3s 20 25 mph 1013.9mb 58f 52f
8:50am 2ft 3s 3s 18 20 mph 1014.2mb 58f 50f
6:50am 1.3ft 11s 4s 11 16 mph 1016mb 57f 49f
5:50am 1.3ft 11s 4s 9 11 mph 1016.2mb 57f 46f
4:50am 1.3ft 11s 4s 4 7 mph 1016.4mb 57f 46f
3:50am 1.3ft 4s 4s 2 4 mph 1016.5mb 58f 46f
2:50am 1.6ft 4s 4s 7 9 mph 1017.3mb 58f 46f
1:50am 1.6ft 11s 4s 7 11 mph 1017.8mb 58f 46f
12:50am 2ft 4s 4s 13 16 mph 1018mb 58f 46f
Fri 11/17 11:50pm 2.5ft 5s 4s 13 16 mph 1018mb 58f 46f
10:50pm 2.5ft 5s 4s 16 20 mph 1018mb 58f 46f
9:50pm 2.5ft 5s 4s 16 20 mph 1018.2mb 58f 46f
8:50pm 3ft 5s 4s 20 25 mph 1018.5mb 58f 47f
7:50pm 3.5ft 5s 4s 18 22 mph 1018.1mb 58f 48f
6:50pm 3.5ft 5s 4s 20 25 mph 1018mb 58f 48f
5:50pm 4.5ft 6s 4s 20 25 mph 1017.8mb 58f 49f
4:50pm 5ft 5s 5s 22 29 mph 1017.5mb 58f 49f
3:50pm 5ft 5s 5s 25 31 mph 1017.1mb 58f 49f
2:50pm 5ft 5s 5s 25 31 mph 1016.9mb 58f 47f
1:50pm 5ft 6s 5s 27 36 mph 1016.7mb 58f 46f
12:50pm 5ft 5s 4s 25 31 mph 1016.7mb 58f 45f
11:50am 4.5ft 6s 4s 27 31 mph 1016.5mb 58f 44f
10:50am 5.5ft 6s 5s 25 29 mph 1017.4mb 58f 44f
9:50am 5.5ft 6s 5s 27 34 mph 1017.2mb 58f 44f
8:50am 6ft 6s 5s 29 34 mph 1017.1mb 58f 44f
7:50am 6ft 6s 5s 29 36 mph 1016.1mb 58f 44f
6:50am 6ft 6s 5s 31 38 mph 1015.1mb 58f 44f
5:50am 6ft 6s 5s 31 40 mph 1014.5mb 58f 45f
4:50am 6ft 6s 5s 31 45 mph 1013.8mb 58f 46f
3:50am 6.5ft 6s 5s 34 43 mph 1012.9mb 58f 47f
2:50am 6ft 6s 5s 34 40 mph 1012.3mb 58f 47f
1:50am 6ft 6s 5s 31 38 mph 1012mb 58f 48f
12:50am 7ft 6s 5s 29 36 mph 1011.7mb 58f 49f
Thu 11/16 11:50pm 7.5ft 6s 5s 29 38 mph 1011.4mb 58f 49f
10:50pm 7.5ft 6s 5s 29 36 mph 1011.3mb 58f 50f
9:50pm 6.5ft 6s 5s 34 40 mph 1010.7mb 58f 51f
8:50pm 7ft 6s 5s 31 38 mph 1010.6mb 58f 51f
7:50pm 6.5ft 6s 5s 31 36 mph 1010.5mb 58f 52f
6:50pm 7.5ft 6s 5s 31 40 mph 1009.8mb 58f 52f
5:50pm 7.5ft 6s 5s 31 38 mph 1009mb 58f 53f
4:50pm 6ft 5s 5s 36 45 mph 1007.8mb 58f 54f
3:50pm 5ft 5s 5s 31 43 mph 1007.3mb 59f 56f
2:50pm 5ft 5s 5s 25 31 mph 1007.1mb 59f 57f
1:50pm 4.5ft 11s 5s 20 25 mph 1007.5mb 59f 55f
12:50pm 4.5ft 11s 5s 18 22 mph 1007.8mb 59f 55f
11:50am 4.5ft 12s 5s 20 25 mph 1008.6mb 59f 55f
10:50am 3.5ft 11s 5s 18 20 mph 1009.9mb 59f 55f
9:50am 4.5ft 11s 5s 13 18 mph 1010.5mb 59f 58f
8:50am 4.5ft 11s 5s 20 22 mph 1011.1mb 59f 57f
7:50am 4.5ft 12s 5s 20 25 mph 1011.6mb 58f 56f
6:50am 4ft 11s 4s 20 25 mph 1012mb 58f 56f
5:50am 3.5ft 11s 5s 20 25 mph 1012.7mb 58f 55f
4:50am 3.5ft 11s 5s 18 22 mph 1013.6mb 58f 55f
3:50am 3.5ft 10s 5s 18 22 mph 1014.7mb 58f 54f
2:50am 3.5ft 11s 5s 18 20 mph 1015.9mb 58f 54f
1:50am 3.5ft 11s 5s 16 20 mph 1016.4mb 58f 54f
12:50am 3.5ft 10s 5s 18 20 mph 1016.7mb 58f 54f
Wed 11/15 11:50pm 3.5ft 10s 5s 16 20 mph 1017.6mb 58f 54f
10:50pm 3.5ft 10s 5s 16 20 mph 1018.5mb 58f 53f
9:50pm 3.5ft 11s 5s 16 20 mph 1018.9mb 58f 52f
8:50pm 3.5ft 10s 5s 18 20 mph 1019.3mb 58f 52f
7:50pm 3.5ft 11s 5s 13 18 mph 1020.4mb 58f 51f
6:50pm 3.5ft 10s 5s 13 18 mph 1020.8mb 58f 51f
5:50pm 3.5ft 5s 5s 13 18 mph 1021mb 58f 50f
4:50pm 3.5ft 10s 5s 9 13 mph 1021.4mb 58f 50f
3:50pm 3.5ft 5s 5s 13 18 mph 1021.4mb 58f 49f
2:50pm 3.5ft 5s 5s 13 18 mph 1021.6mb 58f 49f
1:50pm 3.5ft 6s 5s 11 13 mph 1021.8mb 59f 49f
12:50pm 3.5ft 5s 5s 13 18 mph 1022.6mb 59f 49f
11:50am 3.5ft 5s 5s 13 16 mph 1023.5mb 59f 49f
10:50am 3.5ft 6s 5s 16 20 mph 1024.3mb 59f 49f
9:50am 3.5ft 8s 5s 16 20 mph 1025.1mb 59f 48f